You are listening to:
KCUB CTAF - Columbia, South Carolina, United States

KCUB 070153Z AUTO 00000KT 10SM CLR 18/14 A3008 RMK AO2 SLP185 T01780139

If stream doesn't start automatically press the play button
If stream stops then reload player then press play